Time;durP1;ratioP1;P1;durP2;ratioP2;P2;SDS_P1;SDS_P2;PMS_P1;PMS_P2;Temp;Humidity;BMP_temperature;BMP_pressure;BME280_temperature;BME280_humidity;BME280_pressure;Samples;Min_cycle;Max_cycle;Signal;HPM_P1;HPM_P2
2022/03/23 00:02:13;;;;;;;9.47;6.07;;;9.60;46.50;;;;;;5096278;28;20165;-65
2022/03/23 00:04:39;;;;;;;12.07;5.63;;;9.40;46.50;;;;;;5096034;28;20224;-63
2022/03/23 00:07:05;;;;;;;11.97;5.80;;;9.50;47.00;;;;;;5096169;28;20171;-65
2022/03/23 00:09:30;;;;;;;9.67;5.93;;;9.40;47.20;;;;;;5095847;28;20625;-65
2022/03/23 00:11:56;;;;;;;8.80;5.47;;;9.40;47.20;;;;;;5095939;28;20159;-66
2022/03/23 00:14:22;;;;;;;13.60;6.10;;;9.20;47.10;;;;;;5095997;28;20178;-64
2022/03/23 00:16:49;;;;;;;8.83;5.60;;;9.10;47.60;;;;;;5095737;28;20161;-64
2022/03/23 00:19:17;;;;;;;9.93;6.23;;;9.00;48.40;;;;;;5096226;28;20540;-65
2022/03/23 00:21:42;;;;;;;10.20;5.57;;;8.90;48.90;;;;;;5095582;28;20161;-65
2022/03/23 00:24:08;;;;;;;9.90;5.40;;;8.90;49.20;;;;;;5095703;28;20317;-64
2022/03/23 00:26:34;;;;;;;8.57;5.80;;;8.70;49.10;;;;;;5095656;28;20573;-66
2022/03/23 00:29:00;;;;;;;9.73;5.83;;;8.60;49.20;;;;;;5095370;28;20188;-64
2022/03/23 00:31:25;;;;;;;13.10;5.53;;;8.70;49.70;;;;;;5095280;28;20159;-64
2022/03/23 00:33:54;;;;;;;10.20;5.67;;;8.70;49.40;;;;;;5095832;28;20159;-66
2022/03/23 00:36:20;;;;;;;10.00;5.47;;;8.60;50.00;;;;;;5096284;28;20181;-64
2022/03/23 00:38:47;;;;;;;15.37;5.90;;;8.50;50.70;;;;;;5095531;28;20258;-65
2022/03/23 00:41:13;;;;;;;8.57;5.93;;;8.40;51.20;;;;;;5096069;28;20167;-65
2022/03/23 00:43:39;;;;;;;11.83;5.47;;;8.50;51.30;;;;;;5067510;28;20242;-64
2022/03/23 00:46:05;;;;;;;9.30;5.40;;;8.40;51.20;;;;;;5076046;28;20234;-64
2022/03/23 00:48:31;;;;;;;10.23;5.37;;;8.50;51.00;;;;;;5076580;28;20164;-64
2022/03/23 00:50:57;;;;;;;8.80;4.83;;;8.40;51.20;;;;;;5078673;28;20634;-65
2022/03/23 00:53:23;;;;;;;10.07;5.33;;;8.30;51.80;;;;;;5079201;28;20158;-65
2022/03/23 00:55:49;;;;;;;8.93;5.63;;;8.30;52.00;;;;;;5061152;28;20191;-65
2022/03/23 00:58:15;;;;;;;7.97;5.47;;;8.20;51.90;;;;;;5068587;28;20190;-65
2022/03/23 01:00:45;;;;;;;9.73;6.10;;;8.20;52.30;;;;;;5075827;28;20242;-64
2022/03/23 01:03:12;;;;;;;11.93;4.97;;;8.10;52.50;;;;;;5075642;28;20608;-65
2022/03/23 01:05:38;;;;;;;9.00;5.37;;;8.10;52.50;;;;;;5075851;28;20278;-64
2022/03/23 01:08:04;;;;;;;7.90;5.13;;;8.10;52.70;;;;;;5063882;28;20275;-64
2022/03/23 01:10:30;;;;;;;7.93;5.00;;;8.10;52.60;;;;;;5055334;28;20168;-63
2022/03/23 01:12:56;;;;;;;12.50;5.57;;;8.00;52.80;;;;;;5054588;28;20198;-65
2022/03/23 01:15:22;;;;;;;12.67;5.97;;;8.00;53.10;;;;;;5054945;28;20171;-65
2022/03/23 01:17:49;;;;;;;11.20;7.47;;;8.00;53.60;;;;;;5054758;28;20170;-64
2022/03/23 01:20:16;;;;;;;15.43;7.60;;;7.80;54.30;;;;;;5054721;28;20168;-63
2022/03/23 01:22:43;;;;;;;10.37;6.20;;;7.60;55.40;;;;;;5054580;28;20165;-65
2022/03/23 01:25:10;;;;;;;13.97;7.80;;;7.60;56.60;;;;;;5055475;28;20210;-64
2022/03/23 01:27:40;;;;;;;11.57;6.20;;;7.50;57.30;;;;;;5056325;28;20163;-64
2022/03/23 01:30:08;;;;;;;9.30;5.60;;;7.60;56.90;;;;;;5056485;28;20168;-64
2022/03/23 01:32:35;;;;;;;8.87;5.90;;;7.60;56.60;;;;;;5056119;28;20677;-66
2022/03/23 01:35:02;;;;;;;11.33;5.90;;;7.60;56.40;;;;;;5039342;28;20176;-65
2022/03/23 01:37:28;;;;;;;12.23;7.27;;;7.60;56.40;;;;;;5073183;28;20198;-64
2022/03/23 01:39:53;;;;;;;12.43;6.83;;;7.40;57.60;;;;;;5056948;28;20330;-65
2022/03/23 01:42:19;;;;;;;16.50;8.27;;;7.20;58.40;;;;;;5055470;28;20210;-64
2022/03/23 01:44:45;;;;;;;19.20;8.50;;;7.00;59.80;;;;;;5074183;28;20221;-64
2022/03/23 01:47:13;;;;;;;17.50;9.20;;;7.10;60.00;;;;;;5074389;28;20165;-64
2022/03/23 01:49:48;;;;;;;11.70;7.67;;;7.00;60.40;;;;;;5074295;28;20205;-65
2022/03/23 01:52:17;;;;;;;19.07;9.17;;;6.80;61.70;;;;;;5074609;28;20250;-65
2022/03/23 01:54:44;;;;;;;14.93;7.90;;;6.80;63.00;;;;;;5076782;28;20164;-65
2022/03/23 01:57:13;;;;;;;15.33;7.70;;;6.70;64.00;;;;;;5075109;28;20163;-65
2022/03/23 01:59:39;;;;;;;13.63;7.23;;;6.70;65.40;;;;;;5074127;28;20163;-64
2022/03/23 02:02:06;;;;;;;16.13;6.87;;;6.70;65.00;;;;;;5073921;28;20171;-66
2022/03/23 02:04:32;;;;;;;13.10;7.80;;;6.70;65.80;;;;;;5073422;28;20155;-64
2022/03/23 02:06:57;;;;;;;11.17;6.87;;;6.60;67.80;;;;;;5074116;28;20245;-64
2022/03/23 02:09:24;;;;;;;11.97;6.10;;;6.30;70.00;;;;;;5074117;28;20501;-65
2022/03/23 02:11:52;;;;;;;15.30;6.53;;;6.30;72.10;;;;;;5074443;28;20160;-64
2022/03/23 02:14:18;;;;;;;12.30;6.23;;;6.30;73.20;;;;;;5073500;28;20182;-65
2022/03/23 02:16:45;;;;;;;8.20;5.57;;;6.20;74.50;;;;;;5073794;28;20166;-65
2022/03/23 02:19:11;;;;;;;8.77;5.53;;;6.10;75.80;;;;;;5073915;28;20219;-64
2022/03/23 02:21:37;;;;;;;12.97;5.60;;;5.90;76.80;;;;;;5074374;28;20169;-65
2022/03/23 02:24:04;;;;;;;8.93;5.13;;;5.90;78.40;;;;;;5090117;28;20479;-65
2022/03/23 02:26:31;;;;;;;8.40;5.37;;;5.90;79.40;;;;;;5074288;28;20289;-64
2022/03/23 02:28:59;;;;;;;9.87;6.03;;;5.90;80.40;;;;;;5073812;28;20615;-66
2022/03/23 02:31:25;;;;;;;10.17;5.67;;;5.80;81.70;;;;;;5077556;28;20187;-65
2022/03/23 02:33:52;;;;;;;14.87;7.70;;;5.60;82.50;;;;;;5080500;28;20150;-65
2022/03/23 02:36:17;;;;;;;9.53;6.30;;;5.60;84.20;;;;;;5062111;28;20191;-64
2022/03/23 02:38:43;;;;;;;13.97;7.33;;;5.80;85.00;;;;;;5080190;28;20243;-64
2022/03/23 02:41:09;;;;;;;12.37;6.57;;;5.60;86.60;;;;;;5080636;28;20260;-63
2022/03/23 02:43:35;;;;;;;15.23;5.70;;;5.60;87.70;;;;;;5079578;28;20252;-65
2022/03/23 02:46:02;;;;;;;12.83;6.10;;;5.50;89.00;;;;;;5079889;28;20191;-64
2022/03/23 02:48:28;;;;;;;9.23;5.33;;;5.60;89.30;;;;;;5079266;28;20176;-65
2022/03/23 02:50:53;;;;;;;10.33;5.63;;;5.60;88.50;;;;;;5074840;28;20178;-64
2022/03/23 03:02:21;;;;;;;13.00;7.13;;;5.40;91.20;;;;;;5073710;28;20298;-64
2022/03/23 03:04:51;;;;;;;14.27;8.53;;;5.30;91.30;;;;;;5073145;28;20172;-64
2022/03/23 03:07:18;;;;;;;10.60;6.33;;;5.30;91.40;;;;;;5074069;28;20178;-64
2022/03/23 03:09:44;;;;;;;9.70;6.03;;;5.20;91.60;;;;;;5074004;28;20178;-65
2022/03/23 03:12:11;;;;;;;9.17;5.67;;;5.20;93.10;;;;;;5073544;28;20532;-64
2022/03/23 03:14:38;;;;;;;8.83;5.50;;;4.90;94.70;;;;;;5077551;28;20225;-64
2022/03/23 03:17:05;;;;;;;9.47;5.97;;;4.90;95.30;;;;;;5077325;28;20166;-64
2022/03/23 03:19:30;;;;;;;11.67;6.77;;;5.10;95.30;;;;;;5078188;28;20159;-64
2022/03/23 03:21:56;;;;;;;10.37;5.60;;;5.00;95.30;;;;;;5077909;28;20171;-65
2022/03/23 03:24:22;;;;;;;10.97;6.60;;;5.00;95.70;;;;;;5078187;28;20161;-64
2022/03/23 03:26:48;;;;;;;14.47;8.13;;;5.10;95.60;;;;;;5078820;28;20196;-63
2022/03/23 03:29:14;;;;;;;12.77;7.27;;;5.10;95.00;;;;;;5080003;28;20194;-67
2022/03/23 03:31:40;;;;;;;14.03;6.57;;;5.30;93.50;;;;;;5079993;28;20179;-64
2022/03/23 03:34:06;;;;;;;15.97;5.97;;;5.20;93.70;;;;;;5080175;28;20589;-65
2022/03/23 03:36:31;;;;;;;9.70;5.90;;;5.10;93.80;;;;;;5080873;28;20268;-64
2022/03/23 03:38:58;;;;;;;12.87;7.03;;;5.10;94.20;;;;;;5063192;28;20189;-65
2022/03/23 03:41:24;;;;;;;16.30;6.23;;;5.30;94.20;;;;;;5081817;28;20295;-65
2022/03/23 03:43:49;;;;;;;14.57;7.03;;;5.30;93.70;;;;;;5081240;28;20229;-64
2022/03/23 03:46:15;;;;;;;11.27;6.63;;;5.20;94.20;;;;;;5064761;28;20204;-64
2022/03/23 03:48:41;;;;;;;9.30;5.83;;;5.10;94.90;;;;;;5066497;28;20182;-65
2022/03/23 03:51:08;;;;;;;8.60;6.43;;;5.00;95.10;;;;;;5084317;28;20236;-66
2022/03/23 03:53:35;;;;;;;11.77;7.27;;;4.80;97.20;;;;;;5100934;28;20175;-64
2022/03/23 03:56:01;;;;;;;11.47;6.77;;;4.40;98.50;;;;;;5080731;28;20164;-65
2022/03/23 03:58:27;;;;;;;11.77;5.63;;;4.30;99.90;;;;;;5095781;28;20196;-65
2022/03/23 04:00:53;;;;;;;11.30;6.43;;;4.20;99.90;;;;;;5095501;28;20516;-64
2022/03/23 04:03:18;;;;;;;9.70;6.67;;;4.40;99.90;;;;;;5081086;28;20174;-65
2022/03/23 04:05:44;;;;;;;13.10;6.80;;;4.20;99.90;;;;;;5096326;28;20202;-64
2022/03/23 04:08:10;;;;;;;11.47;6.43;;;4.10;99.90;;;;;;5081113;28;20258;-64
2022/03/23 04:10:36;;;;;;;10.50;6.23;;;4.10;99.90;;;;;;5078189;28;20179;-65
2022/03/23 04:13:02;;;;;;;12.07;6.93;;;4.10;99.90;;;;;;5076629;28;20161;-65
2022/03/23 04:15:28;;;;;;;11.47;7.13;;;4.10;99.90;;;;;;5075663;28;20163;-66
2022/03/23 04:17:55;;;;;;;13.03;7.27;;;4.20;99.90;;;;;;5076047;28;20171;-65
2022/03/23 04:20:21;;;;;;;11.03;6.97;;;4.20;99.90;;;;;;5075756;28;20542;-65
2022/03/23 04:22:47;;;;;;;10.27;7.03;;;4.30;99.90;;;;;;5074843;28;20174;-64
2022/03/23 04:25:14;;;;;;;10.87;6.73;;;4.30;99.90;;;;;;5074665;28;20261;-65
2022/03/23 04:28:00;;;;;;;10.50;6.03;;;4.30;99.90;;;;;;5075933;28;20187;-64
2022/03/23 04:30:30;;;;;;;15.50;6.90;;;4.40;99.90;;;;;;5075502;28;20563;-64
2022/03/23 04:32:56;;;;;;;11.67;6.43;;;4.30;99.90;;;;;;5075224;28;20244;-65
2022/03/23 04:35:22;;;;;;;13.03;7.07;;;4.30;99.90;;;;;;5090636;28;20178;-64
2022/03/23 04:37:49;;;;;;;11.33;7.00;;;4.20;99.90;;;;;;5075872;28;20174;-64
2022/03/23 04:40:15;;;;;;;12.33;7.73;;;4.20;99.90;;;;;;5091339;28;20181;-64
2022/03/23 04:42:43;;;;;;;11.33;7.87;;;4.20;99.90;;;;;;5075165;28;20167;-64
2022/03/23 04:45:09;;;;;;;12.67;7.20;;;4.10;99.90;;;;;;5074983;28;20281;-64
2022/03/23 04:47:36;;;;;;;10.23;7.00;;;4.10;99.90;;;;;;5075461;28;20202;-66
2022/03/23 04:50:06;;;;;;;13.97;6.70;;;4.00;99.90;;;;;;5075374;28;20191;-64
2022/03/23 04:52:32;;;;;;;10.30;6.40;;;3.90;99.90;;;;;;5075264;28;20256;-64
2022/03/23 04:54:58;;;;;;;11.57;6.80;;;3.90;99.90;;;;;;5074757;28;20557;-64
2022/03/23 04:57:24;;;;;;;11.77;6.83;;;3.90;99.90;;;;;;5074864;28;20167;-63
2022/03/23 04:59:51;;;;;;;11.07;7.03;;;3.80;99.90;;;;;;5075107;28;20180;-64
2022/03/23 05:02:16;;;;;;;13.23;6.73;;;3.80;99.90;;;;;;5074761;28;20183;-63
2022/03/23 05:04:43;;;;;;;12.60;6.53;;;3.80;99.90;;;;;;5074729;28;20160;-65
2022/03/23 05:07:09;;;;;;;9.70;6.50;;;3.80;99.90;;;;;;5075291;28;20283;-64
2022/03/23 05:09:34;;;;;;;11.20;7.03;;;3.80;99.90;;;;;;5074475;28;20513;-64
2022/03/23 05:12:00;;;;;;;12.87;6.93;;;3.90;99.90;;;;;;5075221;28;20212;-64
2022/03/23 05:14:25;;;;;;;15.20;7.60;;;3.90;99.90;;;;;;5074896;28;20271;-64
2022/03/23 05:16:51;;;;;;;13.47;6.70;;;4.00;99.90;;;;;;5076670;28;20505;-68
2022/03/23 05:19:16;;;;;;;13.40;7.40;;;4.00;99.90;;;;;;5079261;28;20158;-64
2022/03/23 05:21:42;;;;;;;12.43;7.43;;;4.00;99.90;;;;;;5078237;28;20174;-67
2022/03/23 05:24:08;;;;;;;12.83;6.80;;;4.00;99.90;;;;;;5078781;28;20459;-65
2022/03/23 05:26:33;;;;;;;14.47;7.67;;;3.90;99.90;;;;;;5077404;28;20327;-64
2022/03/23 05:28:59;;;;;;;17.23;6.83;;;4.00;99.90;;;;;;5077362;28;20167;-63
2022/03/23 05:31:25;;;;;;;15.67;6.83;;;4.10;99.90;;;;;;5076525;28;20174;-64
2022/03/23 05:33:50;;;;;;;15.57;7.57;;;4.00;99.90;;;;;;5075027;28;20210;-64
2022/03/23 05:36:16;;;;;;;11.07;6.87;;;4.10;99.90;;;;;;5073877;28;20184;-64
2022/03/23 05:38:42;;;;;;;13.03;7.10;;;4.10;99.90;;;;;;5074804;28;20173;-64
2022/03/23 05:41:07;;;;;;;13.37;7.33;;;4.20;99.90;;;;;;5073844;28;20160;-65
2022/03/23 05:43:33;;;;;;;12.90;7.67;;;4.30;99.90;;;;;;5074140;28;20227;-64
2022/03/23 05:45:59;;;;;;;14.93;7.50;;;4.40;99.90;;;;;;5074026;28;20231;-65
2022/03/23 05:48:24;;;;;;;13.87;7.40;;;4.50;99.90;;;;;;5074169;28;20174;-63
2022/03/23 05:50:50;;;;;;;15.63;8.10;;;4.60;99.90;;;;;;5073878;28;20619;-64
2022/03/23 05:53:16;;;;;;;12.40;7.10;;;4.60;99.90;;;;;;5074344;28;20172;-65
2022/03/23 05:55:41;;;;;;;14.00;7.50;;;4.60;99.90;;;;;;5074250;28;20645;-64
2022/03/23 05:58:07;;;;;;;11.80;7.63;;;4.70;99.90;;;;;;5074034;28;20160;-64
2022/03/23 06:00:34;;;;;;;8.90;5.37;;;4.90;99.90;;;;;;5074877;28;20230;-65
2022/03/23 06:02:59;;;;;;;13.67;7.87;;;4.90;99.90;;;;;;5074309;28;20276;-64
2022/03/23 06:05:25;;;;;;;12.43;7.60;;;4.90;99.90;;;;;;5079424;28;20191;-66
2022/03/23 06:07:51;;;;;;;16.70;7.43;;;4.90;99.90;;;;;;5080501;28;20178;-64
2022/03/23 06:10:17;;;;;;;21.87;7.40;;;5.00;99.90;;;;;;5073613;28;20168;-65
2022/03/23 06:12:42;;;;;;;11.70;6.53;;;5.00;99.90;;;;;;5074018;28;20175;-66
2022/03/23 06:15:10;;;;;;;13.83;8.47;;;5.10;99.90;;;;;;5073388;28;20159;-65
2022/03/23 06:17:36;;;;;;;18.40;10.80;;;5.20;99.90;;;;;;5073883;28;20222;-64
2022/03/23 06:20:06;;;;;;;20.63;11.90;;;5.20;99.90;;;;;;5073817;28;20515;-65
2022/03/23 06:22:32;;;;;;;23.00;13.10;;;5.30;99.90;;;;;;5077964;28;20178;-64
2022/03/23 06:24:57;;;;;;;19.90;12.33;;;5.40;99.90;;;;;;5080801;28;20167;-64
2022/03/23 06:27:24;;;;;;;23.67;11.10;;;5.50;99.90;;;;;;5076887;28;20180;-63
2022/03/23 06:29:50;;;;;;;21.87;12.43;;;5.60;99.90;;;;;;5078000;28;20172;-64
2022/03/23 06:32:16;;;;;;;22.53;11.10;;;5.60;99.90;;;;;;5077094;28;20709;-64
2022/03/23 06:34:41;;;;;;;23.00;11.27;;;5.70;99.90;;;;;;5078641;28;20159;-64
2022/03/23 06:37:08;;;;;;;18.03;10.80;;;5.90;99.70;;;;;;5078872;28;20215;-65
2022/03/23 06:39:33;;;;;;;14.97;7.80;;;5.90;99.00;;;;;;5075099;28;20173;-65
2022/03/23 06:41:59;;;;;;;14.80;9.00;;;6.00;97.90;;;;;;5073602;28;20564;-65
2022/03/23 06:44:25;;;;;;;13.73;9.10;;;6.20;97.50;;;;;;5073521;28;20319;-65
2022/03/23 06:46:51;;;;;;;15.50;8.40;;;6.30;96.90;;;;;;5075470;28;20266;-66
2022/03/23 06:49:16;;;;;;;17.53;8.13;;;6.50;96.30;;;;;;5078869;28;20163;-65
2022/03/23 06:51:43;;;;;;;12.27;7.73;;;6.60;95.40;;;;;;5077461;28;20174;-65
2022/03/23 06:54:09;;;;;;;11.63;7.17;;;6.50;94.80;;;;;;5078598;28;20217;-65
2022/03/23 06:56:34;;;;;;;11.27;6.33;;;6.80;94.10;;;;;;5080211;28;20164;-66
2022/03/23 06:59:00;;;;;;;11.97;7.33;;;6.90;93.20;;;;;;5081524;28;20621;-66
2022/03/23 07:01:26;;;;;;;9.43;6.57;;;7.10;92.60;;;;;;5078210;28;20187;-64
2022/03/23 07:03:52;;;;;;;10.47;7.30;;;7.10;92.30;;;;;;5078266;28;20163;-66
2022/03/23 07:06:17;;;;;;;11.87;7.13;;;7.30;91.70;;;;;;5076384;28;20196;-67
2022/03/23 07:11:29;;;;;;;14.37;6.57;;;7.50;89.90;;;;;;5076102;28;20159;-66
2022/03/23 07:13:54;;;;;;;12.03;7.53;;;7.80;88.80;;;;;;5076143;28;20155;-66
2022/03/23 07:16:20;;;;;;;15.50;8.57;;;7.90;87.10;;;;;;5076092;28;20164;-66
2022/03/23 07:18:46;;;;;;;15.93;8.33;;;8.10;84.60;;;;;;5076399;28;20161;-65
2022/03/23 07:21:11;;;;;;;13.43;7.27;;;8.30;83.50;;;;;;5058375;28;20246;-66
2022/03/23 07:23:37;;;;;;;13.13;7.83;;;8.40;80.80;;;;;;5076872;28;20163;-67
2022/03/23 07:26:04;;;;;;;11.17;7.17;;;8.40;79.00;;;;;;5080547;28;20555;-65
2022/03/23 07:28:30;;;;;;;15.03;7.20;;;8.50;78.50;;;;;;5098514;28;20521;-66
2022/03/23 07:30:56;;;;;;;11.07;7.17;;;8.60;77.20;;;;;;5084125;28;20181;-65
2022/03/23 07:33:22;;;;;;;15.67;8.97;;;8.80;76.60;;;;;;5079790;28;20156;-65
2022/03/23 07:35:48;;;;;;;13.93;7.50;;;8.80;74.40;;;;;;5076301;28;20177;-65
2022/03/23 07:38:14;;;;;;;12.07;8.20;;;9.00;73.50;;;;;;5076363;28;20170;-65
2022/03/23 07:40:39;;;;;;;11.10;7.10;;;9.10;74.10;;;;;;5076626;28;20181;-66
2022/03/23 07:43:06;;;;;;;13.87;7.07;;;9.20;73.10;;;;;;5075989;28;20308;-65
2022/03/23 07:45:32;;;;;;;12.57;8.20;;;9.20;71.70;;;;;;5075960;28;20226;-65
2022/03/23 07:47:58;;;;;;;17.07;7.30;;;9.40;71.40;;;;;;5075872;28;20176;-67
2022/03/23 07:50:23;;;;;;;15.07;8.47;;;9.50;70.50;;;;;;5076083;28;20171;-66
2022/03/23 07:52:49;;;;;;;17.00;8.20;;;9.50;70.00;;;;;;5092019;28;20658;-66
2022/03/23 07:55:15;;;;;;;15.60;7.97;;;9.60;69.50;;;;;;5075960;28;20190;-67
2022/03/23 07:57:41;;;;;;;17.13;8.40;;;9.80;69.10;;;;;;5075966;28;20166;-66
2022/03/23 08:00:07;;;;;;;15.47;8.27;;;9.90;67.70;;;;;;5091476;28;20190;-66
2022/03/23 08:02:33;;;;;;;14.20;8.40;;;10.10;65.40;;;;;;5076171;28;20181;-65
2022/03/23 08:04:59;;;;;;;16.20;7.57;;;10.20;65.50;;;;;;5075942;28;20227;-66
2022/03/23 08:07:24;;;;;;;13.43;8.10;;;10.40;64.50;;;;;;5076254;28;20167;-66
2022/03/23 08:09:51;;;;;;;17.83;8.40;;;10.50;62.10;;;;;;5076817;28;20163;-65
2022/03/23 08:12:17;;;;;;;17.03;8.37;;;10.80;60.50;;;;;;5078903;28;20510;-66
2022/03/23 08:14:44;;;;;;;12.73;7.77;;;10.80;59.50;;;;;;5078741;28;20163;-67
2022/03/23 08:17:10;;;;;;;11.40;7.73;;;10.80;58.30;;;;;;5079632;28;20467;-66
2022/03/23 08:19:37;;;;;;;16.13;8.63;;;10.90;57.80;;;;;;5076668;28;20168;-66
2022/03/23 08:22:02;;;;;;;14.77;8.23;;;11.10;57.20;;;;;;5075629;28;20156;-66
2022/03/23 08:24:28;;;;;;;15.70;8.00;;;11.10;56.80;;;;;;5075558;28;20229;-66
2022/03/23 08:26:54;;;;;;;16.63;9.20;;;11.40;56.30;;;;;;5075594;28;20249;-66
2022/03/23 08:29:20;;;;;;;16.17;8.47;;;11.50;55.70;;;;;;5076282;28;20170;-66
2022/03/23 08:31:46;;;;;;;9.87;6.83;;;11.70;54.90;;;;;;5076210;28;20163;-65
2022/03/23 08:34:12;;;;;;;13.30;8.60;;;11.80;54.10;;;;;;5076547;28;20251;-67
2022/03/23 08:36:38;;;;;;;12.97;7.90;;;11.90;53.60;;;;;;5076075;28;20614;-67
2022/03/23 08:39:05;;;;;;;13.03;7.73;;;11.90;52.90;;;;;;5091381;28;20274;-65
2022/03/23 08:41:31;;;;;;;17.43;8.03;;;12.10;52.30;;;;;;5075378;28;20223;-66
2022/03/23 08:43:57;;;;;;;14.13;7.37;;;12.30;52.30;;;;;;5075482;28;20264;-66
2022/03/23 08:46:23;;;;;;;11.53;7.33;;;12.30;51.10;;;;;;5076005;28;20247;-67
2022/03/23 08:48:51;;;;;;;13.27;7.47;;;12.30;48.30;;;;;;5076708;28;20171;-66
2022/03/23 08:51:17;;;;;;;17.50;7.40;;;12.40;48.70;;;;;;5091347;28;20623;-69
2022/03/23 08:53:46;;;;;;;11.87;7.60;;;12.50;49.00;;;;;;5076080;28;20168;-68
2022/03/23 08:56:12;;;;;;;12.67;8.30;;;12.60;48.90;;;;;;5075097;28;20243;-66
2022/03/23 08:58:38;;;;;;;12.87;8.10;;;12.70;48.50;;;;;;5074761;28;20595;-67
2022/03/23 09:01:04;;;;;;;12.70;7.80;;;12.80;47.70;;;;;;5076724;28;20646;-66
2022/03/23 09:03:30;;;;;;;12.90;8.30;;;13.10;46.60;;;;;;5076596;28;20596;-65
2022/03/23 09:05:57;;;;;;;9.63;7.00;;;13.20;45.40;;;;;;5077056;28;20217;-66
2022/03/23 09:08:23;;;;;;;13.10;7.73;;;13.30;44.50;;;;;;5077393;28;20168;-66
2022/03/23 09:10:48;;;;;;;12.00;7.93;;;13.30;44.10;;;;;;5057475;28;20654;-66
2022/03/23 09:13:14;;;;;;;10.77;7.23;;;13.60;43.90;;;;;;5074082;28;20155;-66
2022/03/23 09:15:40;;;;;;;16.57;8.40;;;13.70;42.50;;;;;;5074362;28;20647;-67
2022/03/23 09:18:07;;;;;;;13.83;8.17;;;13.80;42.00;;;;;;5074021;28;20611;-66
2022/03/23 09:20:33;;;;;;;14.93;8.20;;;13.80;42.00;;;;;;5074566;28;20641;-67
2022/03/23 09:23:00;;;;;;;13.27;7.97;;;13.90;42.10;;;;;;5074136;28;20171;-67
2022/03/23 09:25:26;;;;;;;27.57;14.53;;;14.10;41.80;;;;;;5073907;28;20243;-66
2022/03/23 09:27:52;;;;;;;15.03;9.27;;;14.20;40.90;;;;;;5074522;28;20163;-65
2022/03/23 09:30:19;;;;;;;13.30;8.40;;;14.10;40.70;;;;;;5074890;28;20168;-67
2022/03/23 09:32:46;;;;;;;14.57;7.97;;;14.10;40.40;;;;;;5074062;28;20163;-66
2022/03/23 09:35:13;;;;;;;11.33;7.93;;;14.20;40.40;;;;;;5074760;28;20204;-66
2022/03/23 09:37:49;;;;;;;13.53;8.43;;;14.20;39.90;;;;;;5093075;28;20269;-67
2022/03/23 09:40:25;;;;;;;13.87;8.70;;;14.50;40.00;;;;;;5073897;28;20166;-66
2022/03/23 09:42:52;;;;;;;14.37;8.00;;;14.60;39.90;;;;;;5073632;28;20222;-66
2022/03/23 09:45:35;;;;;;;12.87;8.23;;;14.80;39.80;;;;;;5073798;28;20160;-66
2022/03/23 09:48:03;;;;;;;13.53;8.13;;;14.90;39.30;;;;;;5089650;28;20281;-65
2022/03/23 09:50:31;;;;;;;15.37;8.63;;;14.80;39.10;;;;;;5074677;28;20611;-66
2022/03/23 09:52:58;;;;;;;17.60;8.77;;;14.90;39.40;;;;;;5076130;28;20167;-68
2022/03/23 09:55:24;;;;;;;20.47;8.70;;;14.90;39.40;;;;;;5075740;28;20163;-66
2022/03/23 09:57:57;;;;;;;17.53;9.23;;;15.10;39.60;;;;;;5076189;28;20170;-66
2022/03/23 10:00:27;;;;;;;15.23;7.77;;;15.10;39.40;;;;;;5074550;28;20232;-66
2022/03/23 10:03:12;;;;;;;14.13;8.53;;;15.30;39.40;;;;;;5074820;28;20160;-66
2022/03/23 10:06:11;;;;;;;13.47;8.47;;;15.60;39.20;;;;;;5075105;28;20230;-66
2022/03/23 10:08:59;;;;;;;19.43;9.00;;;15.50;39.10;;;;;;5076788;28;20187;-66
2022/03/23 10:12:01;;;;;;;12.80;7.60;;;15.20;39.30;;;;;;5076877;28;20166;-66
2022/03/23 10:15:06;;;;;;;12.90;8.60;;;15.50;38.90;;;;;;5075262;28;20208;-66
2022/03/23 10:17:53;;;;;;;17.80;8.57;;;15.60;38.30;;;;;;5076243;28;20168;-66
2022/03/23 10:20:18;;;;;;;16.07;8.60;;;15.70;37.60;;;;;;5074663;28;20167;-66
2022/03/23 10:22:49;;;;;;;15.23;8.43;;;15.90;38.00;;;;;;5054822;28;20615;-66
2022/03/23 10:25:16;;;;;;;13.50;8.23;;;15.90;37.60;;;;;;5073480;28;20309;-65
2022/03/23 10:27:43;;;;;;;16.27;8.48;;;16.00;37.60;;;;;;5075106;28;20220;-66
2022/03/23 10:30:09;;;;;;;14.23;8.80;;;16.00;37.40;;;;;;5073967;28;20265;-66
2022/03/23 10:32:42;;;;;;;14.13;8.13;;;16.10;36.40;;;;;;5073122;28;20165;-66
2022/03/23 10:35:14;;;;;;;12.20;8.25;;;15.90;36.80;;;;;;5085346;28;20768;-65
2022/03/23 10:37:40;;;;;;;14.82;8.48;;;16.00;36.40;;;;;;5073676;28;20460;-66
2022/03/23 10:40:09;;;;;;;14.65;9.18;;;16.20;36.90;;;;;;5089713;28;20468;-66
2022/03/23 10:42:40;;;;;;;16.15;8.25;;;16.30;36.70;;;;;;5073347;28;20156;-66
2022/03/23 10:45:20;;;;;;;14.90;8.48;;;16.30;36.10;;;;;;5073689;28;20518;-68
2022/03/23 10:47:47;;;;;;;13.55;8.68;;;16.30;35.90;;;;;;5090044;28;20202;-66
2022/03/23 10:50:24;;;;;;;14.13;9.27;;;16.20;36.00;;;;;;5075046;28;20171;-68
2022/03/23 10:53:01;;;;;;;15.80;7.43;;;16.40;36.20;;;;;;5095582;28;20186;-66
2022/03/23 10:55:34;;;;;;;12.55;8.57;;;16.60;35.50;;;;;;5078136;28;20179;-66
2022/03/23 10:58:00;;;;;;;13.77;7.45;;;16.50;35.60;;;;;;5092672;28;20607;-68
2022/03/23 11:00:38;;;;;;;15.10;8.55;;;16.60;34.70;;;;;;5076207;28;20250;-66
2022/03/23 11:03:05;;;;;;;12.38;8.32;;;16.60;34.30;;;;;;5090773;28;20179;-69
2022/03/23 11:05:51;;;;;;;19.67;8.40;;;16.70;34.40;;;;;;5072609;28;20648;-66
2022/03/23 11:08:22;;;;;;;10.52;7.90;;;16.80;34.20;;;;;;5054225;28;20623;-66
2022/03/23 11:16:49;;;;;;;11.70;8.55;;;17.10;33.00;;;;;;5012065;28;20617;-66
2022/03/23 11:19:21;;;;;;;12.15;8.25;;;17.20;32.80;;;;;;5058012;28;20188;-66
2022/03/23 11:22:06;;;;;;;13.35;8.60;;;17.10;32.50;;;;;;5072545;28;20175;-67
2022/03/23 11:24:32;;;;;;;11.23;7.78;;;16.90;32.20;;;;;;5072694;28;20654;-68
2022/03/23 11:26:58;;;;;;;14.07;8.30;;;16.80;32.00;;;;;;5072341;28;20245;-67
2022/03/23 11:29:24;;;;;;;11.80;8.10;;;16.70;32.40;;;;;;5073234;28;20168;-67
2022/03/23 11:31:53;;;;;;;12.20;8.05;;;16.90;32.40;;;;;;5088692;28;20185;-67
2022/03/23 11:34:21;;;;;;;13.80;8.43;;;17.00;32.40;;;;;;5089059;28;20630;-67
2022/03/23 11:36:50;;;;;;;10.60;8.50;;;17.10;33.00;;;;;;5076127;28;20530;-65
2022/03/23 11:39:16;;;;;;;13.25;8.50;;;17.30;33.50;;;;;;5057807;28;20637;-66
2022/03/23 11:41:43;;;;;;;17.38;9.05;;;17.50;33.20;;;;;;5091389;28;20186;-67
2022/03/23 11:44:15;;;;;;;12.43;8.35;;;17.50;32.90;;;;;;5095818;28;20227;-67
2022/03/23 11:46:42;;;;;;;12.27;8.05;;;17.50;32.80;;;;;;5095433;28;20646;-67
2022/03/23 11:49:24;;;;;;;15.23;9.07;;;17.40;32.80;;;;;;5095570;28;20269;-65
2022/03/23 11:52:00;;;;;;;11.90;8.30;;;17.50;32.50;;;;;;5096389;28;20159;-67
2022/03/23 11:57:54;;;;;;;16.83;8.50;;;17.70;32.10;;;;;;5095920;28;20174;-66
2022/03/23 12:00:21;;;;;;;15.88;8.18;;;17.70;32.50;;;;;;5078400;28;20175;-67
2022/03/23 12:02:47;;;;;;;14.07;8.45;;;17.90;32.60;;;;;;5095470;28;20195;-67
2022/03/23 12:05:26;;;;;;;11.35;8.57;;;18.20;32.70;;;;;;5074513;28;20194;-66
2022/03/23 12:07:51;;;;;;;13.15;8.38;;;18.20;32.60;;;;;;5075200;28;20183;-67
2022/03/23 12:10:20;;;;;;;14.07;8.13;;;18.00;32.40;;;;;;5075918;28;20234;-66
2022/03/23 12:12:46;;;;;;;14.50;8.63;;;18.00;32.00;;;;;;5076261;28;20223;-65
2022/03/23 12:15:23;;;;;;;13.05;9.30;;;18.00;32.40;;;;;;5076245;28;20596;-66
2022/03/23 12:17:55;;;;;;;12.45;8.35;;;18.10;33.00;;;;;;5075980;28;20242;-65
2022/03/23 12:20:37;;;;;;;14.65;9.80;;;18.10;33.40;;;;;;5075900;28;20608;-66
2022/03/23 12:23:42;;;;;;;14.90;8.57;;;18.30;33.50;;;;;;5076021;28;20152;-68
2022/03/23 12:26:22;;;;;;;14.05;8.95;;;18.40;33.60;;;;;;5061974;28;20266;-66
2022/03/23 12:29:03;;;;;;;16.58;9.30;;;18.60;33.80;;;;;;5075879;28;20223;-66
2022/03/23 12:31:38;;;;;;;18.65;10.00;;;18.60;34.00;;;;;;5075879;28;20160;-66
2022/03/23 12:34:11;;;;;;;13.80;9.60;;;18.80;34.00;;;;;;5075380;28;20167;-66
2022/03/23 12:39:30;;;;;;;17.15;9.07;;;18.50;33.70;;;;;;5076353;28;20162;-67
2022/03/23 12:42:01;;;;;;;16.10;9.55;;;18.60;34.00;;;;;;5077303;28;20164;-66
2022/03/23 12:44:29;;;;;;;12.38;9.23;;;18.90;34.00;;;;;;5077280;28;20306;-65
2022/03/23 12:46:55;;;;;;;14.23;9.10;;;18.70;33.90;;;;;;5076923;28;20191;-67
2022/03/23 12:57:53;;;;;;;15.25;9.45;;;19.10;33.50;;;;;;5076457;28;20229;-67
2022/03/23 13:00:25;;;;;;;14.75;10.02;;;19.00;34.10;;;;;;5077725;28;20159;-66
2022/03/23 13:03:18;;;;;;;17.52;10.23;;;18.90;34.90;;;;;;5077925;28;20170;-66
2022/03/23 13:05:59;;;;;;;21.08;10.90;;;18.90;34.90;;;;;;5076721;28;20239;-68
2022/03/23 13:08:30;;;;;;;15.35;10.45;;;19.20;35.60;;;;;;5076884;28;20625;-65
2022/03/23 13:10:59;;;;;;;15.07;10.80;;;19.00;35.50;;;;;;5076539;28;20158;-66
2022/03/23 13:13:25;;;;;;;21.23;11.85;;;19.00;36.20;;;;;;5076701;28;20167;-66
2022/03/23 13:15:52;;;;;;;15.45;10.80;;;19.10;36.40;;;;;;5076521;28;20193;-67
2022/03/23 13:18:26;;;;;;;15.38;10.50;;;19.00;36.70;;;;;;5075086;28;20205;-67
2022/03/23 13:20:52;;;;;;;15.38;9.98;;;19.20;36.90;;;;;;5093732;28;20198;-67